High River, Canada
Current Conditions -  °F | °C
As of 7:00 AM on Sunday 21 Dec 2014 (Local Time) from CYYC Reporting Station
Broken Clouds Broken Clouds  
Wind Chill: 32°   Ceiling: 22000
Heat Index: 41°   Visibility: 15mi
Dew Point: 23°   Wind: 20mph
Humidity: 49%   Direction: 280°W
Pressure: 29.17"   Gusts: 28mph
Location:  50.58°N, 113.87°W
Report Text: CYYC 211400Z 28017G24KT 15SM FEW130 BKN220 05/M05 A2917 RMK AC1CI5 AC TR SLP912 DENSITY ALT 4100FT
Loading
Personal Weather Stations






























Interactive Weather Map New forecast layout! Learn more

10-Day Weather Forecast

Advertisements
Track Severe Weather on mobile